sensor_id;sensor_type;location;lat;lon;timestamp;P1;durP1;ratioP1;P2;durP2;ratioP2
68944;SDS011;55984;48.790;8.990;2022-12-07T00:02:23;27.37;;;12.47;;
68944;SDS011;55984;48.790;8.990;2022-12-07T00:04:49;28.37;;;13.23;;
68944;SDS011;55984;48.790;8.990;2022-12-07T00:07:15;26.17;;;12.80;;
68944;SDS011;55984;48.790;8.990;2022-12-07T00:09:41;28.30;;;13.83;;
68944;SDS011;55984;48.790;8.990;2022-12-07T00:12:06;25.03;;;12.60;;
68944;SDS011;55984;48.790;8.990;2022-12-07T00:14:32;22.43;;;11.47;;
68944;SDS011;55984;48.790;8.990;2022-12-07T00:16:57;25.33;;;11.87;;
68944;SDS011;55984;48.790;8.990;2022-12-07T00:19:22;22.50;;;11.10;;
68944;SDS011;55984;48.790;8.990;2022-12-07T00:21:48;25.33;;;12.13;;
68944;SDS011;55984;48.790;8.990;2022-12-07T00:24:13;22.73;;;12.17;;
68944;SDS011;55984;48.790;8.990;2022-12-07T00:26:39;27.43;;;13.57;;
68944;SDS011;55984;48.790;8.990;2022-12-07T00:29:07;27.07;;;12.83;;
68944;SDS011;55984;48.790;8.990;2022-12-07T00:31:36;25.50;;;12.50;;
68944;SDS011;55984;48.790;8.990;2022-12-07T00:34:05;29.40;;;14.07;;
68944;SDS011;55984;48.790;8.990;2022-12-07T00:36:31;26.20;;;14.03;;
68944;SDS011;55984;48.790;8.990;2022-12-07T00:38:57;28.13;;;13.37;;
68944;SDS011;55984;48.790;8.990;2022-12-07T00:41:24;33.57;;;14.87;;
68944;SDS011;55984;48.790;8.990;2022-12-07T00:43:53;28.73;;;15.00;;
68944;SDS011;55984;48.790;8.990;2022-12-07T00:46:20;26.50;;;13.60;;
68944;SDS011;55984;48.790;8.990;2022-12-07T00:48:46;26.67;;;13.80;;
68944;SDS011;55984;48.790;8.990;2022-12-07T00:51:13;28.63;;;13.30;;
68944;SDS011;55984;48.790;8.990;2022-12-07T00:53:39;26.00;;;12.57;;
68944;SDS011;55984;48.790;8.990;2022-12-07T00:56:06;24.60;;;11.50;;
68944;SDS011;55984;48.790;8.990;2022-12-07T00:58:32;22.67;;;11.33;;
68944;SDS011;55984;48.790;8.990;2022-12-07T01:00:59;26.83;;;12.80;;
68944;SDS011;55984;48.790;8.990;2022-12-07T01:03:26;27.80;;;12.40;;
68944;SDS011;55984;48.790;8.990;2022-12-07T01:05:53;26.97;;;12.60;;
68944;SDS011;55984;48.790;8.990;2022-12-07T01:08:19;28.73;;;12.30;;
68944;SDS011;55984;48.790;8.990;2022-12-07T01:10:46;23.97;;;12.10;;
68944;SDS011;55984;48.790;8.990;2022-12-07T01:13:12;28.90;;;12.60;;
68944;SDS011;55984;48.790;8.990;2022-12-07T01:15:42;33.80;;;13.67;;
68944;SDS011;55984;48.790;8.990;2022-12-07T01:18:08;27.53;;;13.10;;
68944;SDS011;55984;48.790;8.990;2022-12-07T01:20:34;27.90;;;13.00;;
68944;SDS011;55984;48.790;8.990;2022-12-07T01:23:00;33.53;;;14.60;;
68944;SDS011;55984;48.790;8.990;2022-12-07T01:25:25;33.20;;;14.40;;
68944;SDS011;55984;48.790;8.990;2022-12-07T01:27:51;29.30;;;13.20;;
68944;SDS011;55984;48.790;8.990;2022-12-07T01:30:16;31.60;;;13.27;;
68944;SDS011;55984;48.790;8.990;2022-12-07T01:32:42;31.73;;;14.40;;
68944;SDS011;55984;48.790;8.990;2022-12-07T01:35:07;33.80;;;15.27;;
68944;SDS011;55984;48.790;8.990;2022-12-07T01:37:34;33.33;;;14.77;;
68944;SDS011;55984;48.790;8.990;2022-12-07T01:40:03;34.20;;;15.20;;
68944;SDS011;55984;48.790;8.990;2022-12-07T01:42:30;30.43;;;14.80;;
68944;SDS011;55984;48.790;8.990;2022-12-07T01:47:50;33.07;;;14.30;;
68944;SDS011;55984;48.790;8.990;2022-12-07T01:50:20;29.97;;;13.63;;
68944;SDS011;55984;48.790;8.990;2022-12-07T01:52:49;33.67;;;14.87;;
68944;SDS011;55984;48.790;8.990;2022-12-07T01:55:18;31.87;;;14.60;;
68944;SDS011;55984;48.790;8.990;2022-12-07T01:57:45;32.00;;;14.27;;
68944;SDS011;55984;48.790;8.990;2022-12-07T02:00:16;33.07;;;14.10;;
68944;SDS011;55984;48.790;8.990;2022-12-07T02:05:26;31.20;;;13.40;;
68944;SDS011;55984;48.790;8.990;2022-12-07T02:07:53;34.03;;;14.20;;
68944;SDS011;55984;48.790;8.990;2022-12-07T02:10:28;36.00;;;14.40;;
68944;SDS011;55984;48.790;8.990;2022-12-07T02:12:56;31.90;;;13.70;;
68944;SDS011;55984;48.790;8.990;2022-12-07T02:16:04;31.57;;;13.50;;
68944;SDS011;55984;48.790;8.990;2022-12-07T02:29:25;25.37;;;12.50;;
68944;SDS011;55984;48.790;8.990;2022-12-07T02:32:08;31.80;;;13.67;;
68944;SDS011;55984;48.790;8.990;2022-12-07T02:34:55;29.77;;;13.40;;
68944;SDS011;55984;48.790;8.990;2022-12-07T02:37:31;28.43;;;12.60;;
68944;SDS011;55984;48.790;8.990;2022-12-07T02:42:45;29.80;;;13.03;;
68944;SDS011;55984;48.790;8.990;2022-12-07T02:45:15;29.47;;;13.40;;
68944;SDS011;55984;48.790;8.990;2022-12-07T02:47:44;31.90;;;13.53;;
68944;SDS011;55984;48.790;8.990;2022-12-07T02:50:13;27.97;;;12.67;;
68944;SDS011;55984;48.790;8.990;2022-12-07T02:52:38;30.40;;;13.17;;
68944;SDS011;55984;48.790;8.990;2022-12-07T02:55:04;26.80;;;12.40;;
68944;SDS011;55984;48.790;8.990;2022-12-07T03:05:07;30.93;;;13.53;;
68944;SDS011;55984;48.790;8.990;2022-12-07T03:08:13;31.77;;;13.73;;
68944;SDS011;55984;48.790;8.990;2022-12-07T03:16:15;30.13;;;13.40;;
68944;SDS011;55984;48.790;8.990;2022-12-07T03:18:46;34.20;;;14.50;;
68944;SDS011;55984;48.790;8.990;2022-12-07T03:21:17;34.47;;;14.03;;
68944;SDS011;55984;48.790;8.990;2022-12-07T03:23:45;29.60;;;13.23;;
68944;SDS011;55984;48.790;8.990;2022-12-07T03:26:16;29.63;;;13.00;;
68944;SDS011;55984;48.790;8.990;2022-12-07T03:28:46;29.33;;;12.83;;
68944;SDS011;55984;48.790;8.990;2022-12-07T03:31:24;30.70;;;13.27;;
68944;SDS011;55984;48.790;8.990;2022-12-07T03:33:59;33.80;;;14.20;;
68944;SDS011;55984;48.790;8.990;2022-12-07T03:36:32;31.90;;;14.40;;
68944;SDS011;55984;48.790;8.990;2022-12-07T03:42:02;33.90;;;14.53;;
68944;SDS011;55984;48.790;8.990;2022-12-07T03:47:01;33.13;;;14.40;;
68944;SDS011;55984;48.790;8.990;2022-12-07T03:49:50;36.57;;;14.00;;
68944;SDS011;55984;48.790;8.990;2022-12-07T03:52:30;34.77;;;14.50;;
68944;SDS011;55984;48.790;8.990;2022-12-07T03:55:14;35.27;;;15.17;;
68944;SDS011;55984;48.790;8.990;2022-12-07T03:57:46;39.57;;;14.50;;
68944;SDS011;55984;48.790;8.990;2022-12-07T04:00:14;32.37;;;14.97;;
68944;SDS011;55984;48.790;8.990;2022-12-07T04:02:39;33.70;;;14.60;;
68944;SDS011;55984;48.790;8.990;2022-12-07T04:05:05;35.83;;;15.00;;
68944;SDS011;55984;48.790;8.990;2022-12-07T04:07:31;35.27;;;15.13;;
68944;SDS011;55984;48.790;8.990;2022-12-07T04:09:57;35.90;;;14.60;;
68944;SDS011;55984;48.790;8.990;2022-12-07T04:12:22;31.90;;;14.73;;
68944;SDS011;55984;48.790;8.990;2022-12-07T04:14:49;34.80;;;14.40;;
68944;SDS011;55984;48.790;8.990;2022-12-07T04:17:15;35.73;;;14.53;;
68944;SDS011;55984;48.790;8.990;2022-12-07T04:19:40;37.00;;;14.53;;
68944;SDS011;55984;48.790;8.990;2022-12-07T04:22:06;31.33;;;13.70;;
68944;SDS011;55984;48.790;8.990;2022-12-07T04:24:32;30.77;;;13.10;;
68944;SDS011;55984;48.790;8.990;2022-12-07T04:26:58;29.83;;;13.47;;
68944;SDS011;55984;48.790;8.990;2022-12-07T04:29:24;29.80;;;13.23;;
68944;SDS011;55984;48.790;8.990;2022-12-07T04:34:22;28.83;;;13.50;;
68944;SDS011;55984;48.790;8.990;2022-12-07T04:36:48;29.47;;;11.87;;
68944;SDS011;55984;48.790;8.990;2022-12-07T04:39:19;22.23;;;9.00;;
68944;SDS011;55984;48.790;8.990;2022-12-07T04:41:52;16.90;;;8.23;;
68944;SDS011;55984;48.790;8.990;2022-12-07T04:44:20;17.70;;;8.37;;
68944;SDS011;55984;48.790;8.990;2022-12-07T04:46:46;21.33;;;10.00;;
68944;SDS011;55984;48.790;8.990;2022-12-07T04:49:12;18.17;;;9.20;;
68944;SDS011;55984;48.790;8.990;2022-12-07T04:51:40;18.08;;;8.60;;
68944;SDS011;55984;48.790;8.990;2022-12-07T04:54:07;18.92;;;8.68;;
68944;SDS011;55984;48.790;8.990;2022-12-07T04:56:33;16.53;;;8.53;;
68944;SDS011;55984;48.790;8.990;2022-12-07T04:59:04;15.87;;;8.80;;
68944;SDS011;55984;48.790;8.990;2022-12-07T05:01:30;15.57;;;8.20;;
68944;SDS011;55984;48.790;8.990;2022-12-07T05:03:56;15.23;;;7.07;;
68944;SDS011;55984;48.790;8.990;2022-12-07T05:06:27;12.17;;;6.87;;
68944;SDS011;55984;48.790;8.990;2022-12-07T05:08:56;14.70;;;6.30;;
68944;SDS011;55984;48.790;8.990;2022-12-07T05:11:21;14.00;;;7.50;;
68944;SDS011;55984;48.790;8.990;2022-12-07T05:16:34;16.23;;;8.45;;
68944;SDS011;55984;48.790;8.990;2022-12-07T05:18:59;19.37;;;9.40;;
68944;SDS011;55984;48.790;8.990;2022-12-07T05:21:25;21.10;;;9.97;;
68944;SDS011;55984;48.790;8.990;2022-12-07T05:23:50;20.20;;;9.90;;
68944;SDS011;55984;48.790;8.990;2022-12-07T05:26:16;21.83;;;10.10;;
68944;SDS011;55984;48.790;8.990;2022-12-07T05:31:14;27.10;;;12.02;;
68944;SDS011;55984;48.790;8.990;2022-12-07T05:33:40;24.33;;;11.40;;
68944;SDS011;55984;48.790;8.990;2022-12-07T05:36:05;27.47;;;12.17;;
68944;SDS011;55984;48.790;8.990;2022-12-07T05:38:32;28.10;;;12.98;;
68944;SDS011;55984;48.790;8.990;2022-12-07T05:41:02;27.73;;;12.45;;
68944;SDS011;55984;48.790;8.990;2022-12-07T05:43:28;28.75;;;12.40;;
68944;SDS011;55984;48.790;8.990;2022-12-07T05:45:54;28.30;;;12.07;;
68944;SDS011;55984;48.790;8.990;2022-12-07T05:48:20;34.77;;;14.67;;
68944;SDS011;55984;48.790;8.990;2022-12-07T05:50:47;37.80;;;13.77;;
68944;SDS011;55984;48.790;8.990;2022-12-07T05:53:13;40.75;;;15.05;;
68944;SDS011;55984;48.790;8.990;2022-12-07T05:55:39;35.33;;;15.50;;
68944;SDS011;55984;48.790;8.990;2022-12-07T05:58:16;33.10;;;13.80;;
68944;SDS011;55984;48.790;8.990;2022-12-07T06:01:00;32.65;;;14.02;;
68944;SDS011;55984;48.790;8.990;2022-12-07T06:03:26;35.40;;;14.03;;
68944;SDS011;55984;48.790;8.990;2022-12-07T06:05:51;40.30;;;15.40;;
68944;SDS011;55984;48.790;8.990;2022-12-07T06:08:28;30.95;;;13.95;;
68944;SDS011;55984;48.790;8.990;2022-12-07T06:11:07;35.57;;;14.20;;
68944;SDS011;55984;48.790;8.990;2022-12-07T06:13:51;31.63;;;13.37;;
68944;SDS011;55984;48.790;8.990;2022-12-07T06:16:17;28.73;;;12.10;;
68944;SDS011;55984;48.790;8.990;2022-12-07T06:18:42;31.50;;;13.00;;
68944;SDS011;55984;48.790;8.990;2022-12-07T06:21:08;30.90;;;12.40;;
68944;SDS011;55984;48.790;8.990;2022-12-07T06:23:33;28.73;;;13.20;;
68944;SDS011;55984;48.790;8.990;2022-12-07T06:28:27;30.02;;;12.13;;
68944;SDS011;55984;48.790;8.990;2022-12-07T06:31:02;30.83;;;12.30;;
68944;SDS011;55984;48.790;8.990;2022-12-07T06:33:28;24.35;;;11.27;;
68944;SDS011;55984;48.790;8.990;2022-12-07T06:35:54;21.00;;;9.87;;
68944;SDS011;55984;48.790;8.990;2022-12-07T06:38:19;19.97;;;8.93;;
68944;SDS011;55984;48.790;8.990;2022-12-07T06:40:45;16.07;;;7.90;;
68944;SDS011;55984;48.790;8.990;2022-12-07T06:43:10;20.97;;;8.63;;
68944;SDS011;55984;48.790;8.990;2022-12-07T06:45:36;18.53;;;8.63;;
68944;SDS011;55984;48.790;8.990;2022-12-07T06:48:01;16.80;;;7.60;;
68944;SDS011;55984;48.790;8.990;2022-12-07T06:50:27;16.27;;;7.03;;
68944;SDS011;55984;48.790;8.990;2022-12-07T06:52:52;13.47;;;7.33;;
68944;SDS011;55984;48.790;8.990;2022-12-07T06:55:17;14.23;;;7.20;;
68944;SDS011;55984;48.790;8.990;2022-12-07T06:57:43;12.60;;;6.57;;
68944;SDS011;55984;48.790;8.990;2022-12-07T07:00:09;13.73;;;6.80;;
68944;SDS011;55984;48.790;8.990;2022-12-07T07:02:35;15.18;;;7.45;;
68944;SDS011;55984;48.790;8.990;2022-12-07T07:05:01;13.67;;;7.30;;
68944;SDS011;55984;48.790;8.990;2022-12-07T07:07:28;15.70;;;7.40;;
68944;SDS011;55984;48.790;8.990;2022-12-07T07:09:57;15.37;;;7.53;;
68944;SDS011;55984;48.790;8.990;2022-12-07T07:12:22;16.23;;;8.13;;
68944;SDS011;55984;48.790;8.990;2022-12-07T07:14:48;15.17;;;7.33;;
68944;SDS011;55984;48.790;8.990;2022-12-07T07:20:06;14.50;;;7.03;;
68944;SDS011;55984;48.790;8.990;2022-12-07T07:22:31;14.17;;;6.30;;
68944;SDS011;55984;48.790;8.990;2022-12-07T07:24:57;13.37;;;6.70;;
68944;SDS011;55984;48.790;8.990;2022-12-07T07:27:22;13.30;;;6.47;;
68944;SDS011;55984;48.790;8.990;2022-12-07T07:29:48;14.00;;;7.43;;
68944;SDS011;55984;48.790;8.990;2022-12-07T07:32:13;15.00;;;7.30;;
68944;SDS011;55984;48.790;8.990;2022-12-07T07:34:39;16.57;;;7.60;;
68944;SDS011;55984;48.790;8.990;2022-12-07T07:37:05;17.30;;;7.43;;
68944;SDS011;55984;48.790;8.990;2022-12-07T07:39:30;19.67;;;8.40;;
68944;SDS011;55984;48.790;8.990;2022-12-07T07:41:55;17.60;;;6.50;;
68944;SDS011;55984;48.790;8.990;2022-12-07T07:44:21;16.40;;;7.87;;
68944;SDS011;55984;48.790;8.990;2022-12-07T07:46:46;28.53;;;7.67;;
68944;SDS011;55984;48.790;8.990;2022-12-07T07:49:12;17.97;;;6.80;;
68944;SDS011;55984;48.790;8.990;2022-12-07T07:51:37;13.60;;;6.83;;
68944;SDS011;55984;48.790;8.990;2022-12-07T07:54:03;15.87;;;7.40;;
68944;SDS011;55984;48.790;8.990;2022-12-07T07:56:29;21.33;;;6.60;;
68944;SDS011;55984;48.790;8.990;2022-12-07T07:58:54;13.47;;;7.40;;
68944;SDS011;55984;48.790;8.990;2022-12-07T08:01:20;15.07;;;7.37;;
68944;SDS011;55984;48.790;8.990;2022-12-07T08:03:46;18.40;;;7.50;;
68944;SDS011;55984;48.790;8.990;2022-12-07T08:06:12;14.20;;;7.23;;
68944;SDS011;55984;48.790;8.990;2022-12-07T08:08:37;14.87;;;7.10;;
68944;SDS011;55984;48.790;8.990;2022-12-07T08:11:06;17.07;;;7.17;;
68944;SDS011;55984;48.790;8.990;2022-12-07T08:13:32;14.37;;;7.07;;
68944;SDS011;55984;48.790;8.990;2022-12-07T08:15:58;14.60;;;6.73;;
68944;SDS011;55984;48.790;8.990;2022-12-07T08:18:27;17.10;;;6.60;;
68944;SDS011;55984;48.790;8.990;2022-12-07T08:20:58;13.03;;;6.57;;
68944;SDS011;55984;48.790;8.990;2022-12-07T08:23:24;14.70;;;6.57;;
68944;SDS011;55984;48.790;8.990;2022-12-07T08:25:49;12.80;;;6.73;;
68944;SDS011;55984;48.790;8.990;2022-12-07T08:28:15;15.10;;;7.10;;
68944;SDS011;55984;48.790;8.990;2022-12-07T08:30:40;14.00;;;6.47;;
68944;SDS011;55984;48.790;8.990;2022-12-07T08:33:05;13.23;;;6.07;;
68944;SDS011;55984;48.790;8.990;2022-12-07T08:35:43;12.20;;;6.33;;
68944;SDS011;55984;48.790;8.990;2022-12-07T08:38:08;12.47;;;5.87;;
68944;SDS011;55984;48.790;8.990;2022-12-07T08:40:34;9.70;;;4.97;;
68944;SDS011;55984;48.790;8.990;2022-12-07T08:43:00;12.50;;;5.30;;
68944;SDS011;55984;48.790;8.990;2022-12-07T08:45:25;11.10;;;5.10;;
68944;SDS011;55984;48.790;8.990;2022-12-07T08:48:02;10.10;;;5.47;;
68944;SDS011;55984;48.790;8.990;2022-12-07T08:50:31;8.93;;;5.00;;
68944;SDS011;55984;48.790;8.990;2022-12-07T08:53:04;10.03;;;5.00;;
68944;SDS011;55984;48.790;8.990;2022-12-07T08:55:31;9.83;;;5.40;;
68944;SDS011;55984;48.790;8.990;2022-12-07T08:57:58;10.63;;;4.87;;
68944;SDS011;55984;48.790;8.990;2022-12-07T09:00:31;11.07;;;5.13;;
68944;SDS011;55984;48.790;8.990;2022-12-07T09:02:57;10.37;;;4.70;;
68944;SDS011;55984;48.790;8.990;2022-12-07T09:05:22;10.07;;;4.90;;
68944;SDS011;55984;48.790;8.990;2022-12-07T09:07:49;9.83;;;4.97;;
68944;SDS011;55984;48.790;8.990;2022-12-07T09:10:19;8.77;;;4.67;;
68944;SDS011;55984;48.790;8.990;2022-12-07T09:12:44;8.90;;;5.03;;
68944;SDS011;55984;48.790;8.990;2022-12-07T09:15:09;10.40;;;4.97;;
68944;SDS011;55984;48.790;8.990;2022-12-07T09:17:35;11.60;;;4.77;;
68944;SDS011;55984;48.790;8.990;2022-12-07T09:22:34;9.97;;;5.30;;
68944;SDS011;55984;48.790;8.990;2022-12-07T09:24:59;10.07;;;4.87;;
68944;SDS011;55984;48.790;8.990;2022-12-07T09:27:25;9.07;;;4.60;;
68944;SDS011;55984;48.790;8.990;2022-12-07T09:29:52;9.07;;;5.10;;
68944;SDS011;55984;48.790;8.990;2022-12-07T09:32:17;8.73;;;4.67;;
68944;SDS011;55984;48.790;8.990;2022-12-07T09:34:43;10.90;;;5.33;;
68944;SDS011;55984;48.790;8.990;2022-12-07T09:37:09;10.80;;;4.67;;
68944;SDS011;55984;48.790;8.990;2022-12-07T09:39:34;8.57;;;4.40;;
68944;SDS011;55984;48.790;8.990;2022-12-07T09:42:03;10.20;;;4.90;;
68944;SDS011;55984;48.790;8.990;2022-12-07T09:44:33;8.63;;;4.90;;
68944;SDS011;55984;48.790;8.990;2022-12-07T09:47:00;15.20;;;4.77;;
68944;SDS011;55984;48.790;8.990;2022-12-07T09:49:27;10.03;;;4.73;;
68944;SDS011;55984;48.790;8.990;2022-12-07T09:54:59;9.53;;;4.73;;
68944;SDS011;55984;48.790;8.990;2022-12-07T09:57:27;7.67;;;4.30;;
68944;SDS011;55984;48.790;8.990;2022-12-07T10:02:57;8.40;;;4.40;;
68944;SDS011;55984;48.790;8.990;2022-12-07T10:05:31;10.83;;;4.83;;
68944;SDS011;55984;48.790;8.990;2022-12-07T10:08:15;7.90;;;4.30;;
68944;SDS011;55984;48.790;8.990;2022-12-07T10:10:42;9.80;;;4.87;;
68944;SDS011;55984;48.790;8.990;2022-12-07T10:13:10;9.70;;;4.63;;
68944;SDS011;55984;48.790;8.990;2022-12-07T10:15:41;8.50;;;4.50;;
68944;SDS011;55984;48.790;8.990;2022-12-07T10:21:03;13.00;;;4.47;;
68944;SDS011;55984;48.790;8.990;2022-12-07T10:24:21;11.00;;;4.60;;
68944;SDS011;55984;48.790;8.990;2022-12-07T10:31:38;8.03;;;4.30;;
68944;SDS011;55984;48.790;8.990;2022-12-07T10:36:54;6.47;;;3.67;;
68944;SDS011;55984;48.790;8.990;2022-12-07T10:39:52;5.47;;;3.50;;
68944;SDS011;55984;48.790;8.990;2022-12-07T10:42:19;6.57;;;3.90;;
68944;SDS011;55984;48.790;8.990;2022-12-07T10:44:47;6.50;;;3.63;;
68944;SDS011;55984;48.790;8.990;2022-12-07T10:50:10;5.87;;;3.40;;
68944;SDS011;55984;48.790;8.990;2022-12-07T10:52:58;5.33;;;3.57;;
68944;SDS011;55984;48.790;8.990;2022-12-07T10:55:44;4.17;;;2.93;;
68944;SDS011;55984;48.790;8.990;2022-12-07T11:01:31;5.23;;;2.80;;
68944;SDS011;55984;48.790;8.990;2022-12-07T11:07:13;4.90;;;3.23;;
68944;SDS011;55984;48.790;8.990;2022-12-07T11:10:05;4.80;;;2.97;;
68944;SDS011;55984;48.790;8.990;2022-12-07T11:17:55;4.90;;;3.00;;
68944;SDS011;55984;48.790;8.990;2022-12-07T11:37:42;4.57;;;2.83;;
68944;SDS011;55984;48.790;8.990;2022-12-07T11:40:20;9.57;;;4.27;;
68944;SDS011;55984;48.790;8.990;2022-12-07T11:45:46;8.20;;;4.70;;
68944;SDS011;55984;48.790;8.990;2022-12-07T11:48:20;10.97;;;5.40;;
68944;SDS011;55984;48.790;8.990;2022-12-07T11:50:59;12.00;;;5.70;;
68944;SDS011;55984;48.790;8.990;2022-12-07T11:53:27;13.10;;;6.10;;
68944;SDS011;55984;48.790;8.990;2022-12-07T12:03:52;11.30;;;6.23;;
68944;SDS011;55984;48.790;8.990;2022-12-07T12:06:21;10.73;;;6.00;;
68944;SDS011;55984;48.790;8.990;2022-12-07T12:09:00;10.30;;;5.63;;
68944;SDS011;55984;48.790;8.990;2022-12-07T12:23:17;12.27;;;6.67;;
68944;SDS011;55984;48.790;8.990;2022-12-07T12:25:48;13.80;;;7.57;;
68944;SDS011;55984;48.790;8.990;2022-12-07T12:28:29;9.77;;;5.20;;
68944;SDS011;55984;48.790;8.990;2022-12-07T12:38:50;9.80;;;6.07;;
68944;SDS011;55984;48.790;8.990;2022-12-07T12:51:48;9.70;;;5.40;;
68944;SDS011;55984;48.790;8.990;2022-12-07T12:54:26;10.10;;;5.33;;
68944;SDS011;55984;48.790;8.990;2022-12-07T12:57:01;10.30;;;5.60;;
68944;SDS011;55984;48.790;8.990;2022-12-07T12:59:31;10.33;;;5.73;;
68944;SDS011;55984;48.790;8.990;2022-12-07T13:18:02;7.90;;;4.40;;
68944;SDS011;55984;48.790;8.990;2022-12-07T13:23:13;9.20;;;4.37;;
68944;SDS011;55984;48.790;8.990;2022-12-07T13:25:45;8.00;;;4.80;;
68944;SDS011;55984;48.790;8.990;2022-12-07T13:28:19;9.67;;;5.00;;
68944;SDS011;55984;48.790;8.990;2022-12-07T13:30:47;8.57;;;4.87;;
68944;SDS011;55984;48.790;8.990;2022-12-07T13:33:24;9.37;;;4.60;;
68944;SDS011;55984;48.790;8.990;2022-12-07T13:35:54;8.63;;;4.70;;
68944;SDS011;55984;48.790;8.990;2022-12-07T13:38:25;14.40;;;5.80;;
68944;SDS011;55984;48.790;8.990;2022-12-07T13:41:01;16.47;;;5.93;;
68944;SDS011;55984;48.790;8.990;2022-12-07T13:43:29;9.87;;;5.57;;
68944;SDS011;55984;48.790;8.990;2022-12-07T13:45:57;11.07;;;5.60;;
68944;SDS011;55984;48.790;8.990;2022-12-07T13:48:33;12.13;;;6.27;;
68944;SDS011;55984;48.790;8.990;2022-12-07T13:51:22;11.80;;;6.47;;
68944;SDS011;55984;48.790;8.990;2022-12-07T13:53:53;14.83;;;7.27;;
68944;SDS011;55984;48.790;8.990;2022-12-07T13:56:21;13.03;;;7.17;;
68944;SDS011;55984;48.790;8.990;2022-12-07T13:58:54;15.50;;;6.43;;
68944;SDS011;55984;48.790;8.990;2022-12-07T14:01:20;13.53;;;7.00;;
68944;SDS011;55984;48.790;8.990;2022-12-07T14:03:45;11.83;;;5.90;;
68944;SDS011;55984;48.790;8.990;2022-12-07T14:06:24;8.43;;;5.10;;
68944;SDS011;55984;48.790;8.990;2022-12-07T14:09:07;11.20;;;5.90;;
68944;SDS011;55984;48.790;8.990;2022-12-07T14:11:40;12.97;;;6.30;;
68944;SDS011;55984;48.790;8.990;2022-12-07T14:14:05;13.93;;;7.27;;
68944;SDS011;55984;48.790;8.990;2022-12-07T14:16:32;12.40;;;5.93;;
68944;SDS011;55984;48.790;8.990;2022-12-07T14:18:59;14.07;;;7.13;;
68944;SDS011;55984;48.790;8.990;2022-12-07T14:21:26;18.17;;;6.90;;
68944;SDS011;55984;48.790;8.990;2022-12-07T14:26:34;12.77;;;7.00;;
68944;SDS011;55984;48.790;8.990;2022-12-07T14:31:50;10.80;;;5.90;;
68944;SDS011;55984;48.790;8.990;2022-12-07T14:34:16;14.63;;;6.70;;
68944;SDS011;55984;48.790;8.990;2022-12-07T14:36:45;11.47;;;6.00;;
68944;SDS011;55984;48.790;8.990;2022-12-07T14:39:10;12.27;;;6.30;;
68944;SDS011;55984;48.790;8.990;2022-12-07T14:41:35;11.17;;;5.90;;
68944;SDS011;55984;48.790;8.990;2022-12-07T14:44:16;12.30;;;6.50;;
68944;SDS011;55984;48.790;8.990;2022-12-07T14:46:42;15.30;;;6.40;;
68944;SDS011;55984;48.790;8.990;2022-12-07T14:49:07;11.03;;;6.23;;
68944;SDS011;55984;48.790;8.990;2022-12-07T14:51:33;10.17;;;5.53;;
68944;SDS011;55984;48.790;8.990;2022-12-07T14:54:02;9.90;;;5.40;;
68944;SDS011;55984;48.790;8.990;2022-12-07T14:56:30;10.90;;;5.57;;
68944;SDS011;55984;48.790;8.990;2022-12-07T14:58:55;10.57;;;5.93;;
68944;SDS011;55984;48.790;8.990;2022-12-07T15:01:21;15.07;;;6.20;;
68944;SDS011;55984;48.790;8.990;2022-12-07T15:03:46;13.10;;;6.73;;
68944;SDS011;55984;48.790;8.990;2022-12-07T15:06:13;13.33;;;7.20;;
68944;SDS011;55984;48.790;8.990;2022-12-07T15:08:40;12.50;;;6.37;;
68944;SDS011;55984;48.790;8.990;2022-12-07T15:11:05;15.40;;;7.40;;
68944;SDS011;55984;48.790;8.990;2022-12-07T15:13:30;15.40;;;8.20;;
68944;SDS011;55984;48.790;8.990;2022-12-07T15:16:16;16.40;;;7.40;;
68944;SDS011;55984;48.790;8.990;2022-12-07T15:18:44;15.50;;;7.40;;
68944;SDS011;55984;48.790;8.990;2022-12-07T15:21:12;20.73;;;9.00;;
68944;SDS011;55984;48.790;8.990;2022-12-07T15:23:39;22.97;;;9.53;;
68944;SDS011;55984;48.790;8.990;2022-12-07T15:26:04;24.40;;;10.37;;
68944;SDS011;55984;48.790;8.990;2022-12-07T15:28:30;22.40;;;11.13;;
68944;SDS011;55984;48.790;8.990;2022-12-07T15:30:55;23.33;;;11.00;;
68944;SDS011;55984;48.790;8.990;2022-12-07T15:33:20;24.63;;;12.17;;
68944;SDS011;55984;48.790;8.990;2022-12-07T15:35:46;27.37;;;13.00;;
68944;SDS011;55984;48.790;8.990;2022-12-07T15:38:11;32.47;;;12.47;;
68944;SDS011;55984;48.790;8.990;2022-12-07T15:40:36;23.80;;;11.53;;
68944;SDS011;55984;48.790;8.990;2022-12-07T15:43:02;25.53;;;11.70;;
68944;SDS011;55984;48.790;8.990;2022-12-07T15:45:28;25.73;;;11.77;;
68944;SDS011;55984;48.790;8.990;2022-12-07T15:47:53;26.43;;;12.90;;
68944;SDS011;55984;48.790;8.990;2022-12-07T15:50:20;30.63;;;13.23;;
68944;SDS011;55984;48.790;8.990;2022-12-07T15:52:46;28.10;;;12.70;;
68944;SDS011;55984;48.790;8.990;2022-12-07T15:55:12;28.47;;;13.30;;
68944;SDS011;55984;48.790;8.990;2022-12-07T15:57:38;28.37;;;12.40;;
68944;SDS011;55984;48.790;8.990;2022-12-07T16:00:04;31.80;;;13.70;;
68944;SDS011;55984;48.790;8.990;2022-12-07T16:02:31;32.87;;;14.97;;
68944;SDS011;55984;48.790;8.990;2022-12-07T16:04:56;28.87;;;12.77;;
68944;SDS011;55984;48.790;8.990;2022-12-07T16:07:21;28.50;;;13.00;;
68944;SDS011;55984;48.790;8.990;2022-12-07T16:09:47;31.67;;;13.63;;
68944;SDS011;55984;48.790;8.990;2022-12-07T16:12:14;32.57;;;14.93;;
68944;SDS011;55984;48.790;8.990;2022-12-07T16:14:40;35.87;;;14.87;;
68944;SDS011;55984;48.790;8.990;2022-12-07T16:17:07;31.13;;;14.47;;
68944;SDS011;55984;48.790;8.990;2022-12-07T16:19:33;34.30;;;14.77;;
68944;SDS011;55984;48.790;8.990;2022-12-07T16:21:59;41.07;;;15.77;;
68944;SDS011;55984;48.790;8.990;2022-12-07T16:24:25;37.63;;;15.13;;
68944;SDS011;55984;48.790;8.990;2022-12-07T16:26:51;32.10;;;14.00;;
68944;SDS011;55984;48.790;8.990;2022-12-07T16:29:17;29.37;;;12.90;;
68944;SDS011;55984;48.790;8.990;2022-12-07T16:31:44;29.83;;;13.57;;
68944;SDS011;55984;48.790;8.990;2022-12-07T16:34:10;33.63;;;14.23;;
68944;SDS011;55984;48.790;8.990;2022-12-07T16:36:35;32.20;;;12.90;;
68944;SDS011;55984;48.790;8.990;2022-12-07T16:39:01;27.77;;;12.67;;
68944;SDS011;55984;48.790;8.990;2022-12-07T16:41:27;35.60;;;16.30;;
68944;SDS011;55984;48.790;8.990;2022-12-07T16:43:53;33.47;;;14.43;;
68944;SDS011;55984;48.790;8.990;2022-12-07T16:46:18;34.03;;;14.17;;
68944;SDS011;55984;48.790;8.990;2022-12-07T16:48:43;33.53;;;14.73;;
68944;SDS011;55984;48.790;8.990;2022-12-07T16:51:10;31.87;;;14.67;;
68944;SDS011;55984;48.790;8.990;2022-12-07T16:53:37;30.53;;;12.87;;
68944;SDS011;55984;48.790;8.990;2022-12-07T16:56:09;30.33;;;13.33;;
68944;SDS011;55984;48.790;8.990;2022-12-07T16:58:39;32.20;;;14.00;;
68944;SDS011;55984;48.790;8.990;2022-12-07T17:01:15;32.42;;;13.30;;
68944;SDS011;55984;48.790;8.990;2022-12-07T17:03:45;31.50;;;13.05;;
68944;SDS011;55984;48.790;8.990;2022-12-07T17:06:15;33.50;;;12.50;;
68944;SDS011;55984;48.790;8.990;2022-12-07T17:08:40;28.47;;;12.80;;
68944;SDS011;55984;48.790;8.990;2022-12-07T17:11:10;30.50;;;12.88;;
68944;SDS011;55984;48.790;8.990;2022-12-07T17:13:40;33.20;;;13.65;;
68944;SDS011;55984;48.790;8.990;2022-12-07T17:16:24;29.93;;;12.40;;
68944;SDS011;55984;48.790;8.990;2022-12-07T17:18:50;31.10;;;13.32;;
68944;SDS011;55984;48.790;8.990;2022-12-07T17:21:16;32.93;;;14.27;;
68944;SDS011;55984;48.790;8.990;2022-12-07T17:23:41;36.63;;;12.50;;
68944;SDS011;55984;48.790;8.990;2022-12-07T17:26:07;33.23;;;13.33;;
68944;SDS011;55984;48.790;8.990;2022-12-07T17:28:36;28.60;;;12.90;;